(°C)
(°C)
-1°
-1°
-1°
-1°
-2°
-2°
-2°
S
S
SSV
SSV
SSV
SSV
SSV
(km/h)
5-11
4-10
4-9
3-8
3-7
2-6
2-6
(mm)
0
0
0
0
0
0
0
(%)
2
2
2
1
1
1
0

Výška Slnka nad obzorom

/ -48.3°
sun-icon
UV 1
07:43
16:58
Zmenšujúci sa polmesiac (256°)
00:00
10:57

Správy METAR pre lokalitu Renton (KRNT)

Čas Podmienky Teplota/
Rosný bod
Vietor Viditeľnosť Počasie Oblaky Tlak Zmeniť Nespracované
IFR 2.2°C / 0.6°C 60º 3kt >10km - Overcast 600ft 1027 - KRNT 250453Z AUTO 06003KT 10SM OVC006 02/01 A3034 RMK AO2 SLP279 T00220006
IFR 2.2°C / 0.6°C 60º 4kt >10km - Overcast 500ft 1027 - KRNT 250353Z AUTO 06004KT 10SM OVC005 02/01 A3033 RMK AO2 SLP275 T00220006
IFR 2.2°C / 0.6°C 360º 5kt >10km - Overcast 600ft 1027 - KRNT 250253Z 36005KT 10SM OVC006 02/01 A3032 RMK AO2 SLP272 T00220006 51005
IFR 3.3°C / 1.1°C 40º 3kt >10km - Overcast 600ft 1027 - KRNT 250153Z 04003KT 10SM OVC006 03/01 A3032 RMK AO2 SLP271 T00330011
IFR 3.3°C / 1.1°C 30º 5kt >10km - Overcast 700ft 1026 - KRNT 250053Z 03005KT 8SM OVC007 03/01 A3031 RMK AO2 SLP269 T00330011
IFR 3.3°C / 1.1°C 40º 4kt >10km - Overcast 700ft - KRNT 250037Z 04004KT 9SM OVC007 03/01 A3031 RMK AO2 T00330011
IFR 3.3°C / 1.1°C variable 5kt >10km - Overcast 800ft - KRNT 250023Z VRB05KT 10SM OVC008 03/01 A3031 RMK AO2 T00330011
IFR 3.9°C / 1.7°C variable 5kt >10km - Overcast 700ft 1026 - KRNT 242353Z VRB05KT 9SM OVC007 04/02 A3031 RMK AO2 SLP267 T00390017 10044 20022 55001
IFR 4.4°C / 2.2°C 30º 5kt >10km - Overcast 700ft 1026 - KRNT 242253Z 03005KT 8SM OVC007 04/02 A3029 RMK AO2 SLP263 T00440022
IFR 3.9°C / 2.2°C variable 3kt >10km - Overcast 600ft 1026 - KRNT 242153Z VRB03KT 7SM OVC006 04/02 A3030 RMK AO2 SLP264 T00390022
IFR 3.9°C / 1.7°C 350º 4kt 9700m Mist Vertical Visibility of 0ft. 1026 - KRNT 242053Z 35004KT 6SM BR OVC005 04/02 A3031 RMK AO2 SLP268 T00390017 58003 $
IFR 3.3°C / 1.7°C variable 0kt 6400m Mist Vertical Visibility of 0ft. - KRNT 242000Z 00000KT 4SM BR OVC005 03/02 A3032 RMK AO2 T00330017 $
LIFR 3.3°C / 2.2°C variable 0kt 6400m Mist Vertical Visibility of 0ft. - KRNT 241944Z 00000KT 4SM BR OVC004 03/02 A3032 RMK AO2 T00330022 $
IFR 2.8°C / 1.1°C variable 0kt 9700m Mist Vertical Visibility of 0ft. - KRNT 241900Z 00000KT 6SM BR OVC005 03/01 A3033 RMK AO2 T00280011 $
LIFR 2.2°C / 1.1°C variable 0kt 9700m Mist Vertical Visibility of 0ft. 1027 - KRNT 241753Z 00000KT 6SM BR OVC003 02/01 A3032 RMK AO2 SLP271 T00220011 10028 20017 52013
LIFR 2.2°C / 1.1°C variable 3kt 4800m Mist Vertical Visibility of 0ft. - KRNT 241703Z VRB03KT 3SM BR OVC003 02/01 A3030 RMK AO2 T00220011
LIFR 2.2°C / 1.1°C 50º 3kt 4000m Mist Vertical Visibility of 0ft. 1026 - KRNT 241653Z 05003KT 2 1/2SM BR OVC003 02/01 A3030 RMK AO2 SLP265 T00220011
LIFR 2°C / 1°C variable 0kt 4000m Mist Vertical Visibility of 0ft. - KRNT 241651Z 00000KT 2 1/2SM BR OVC003 02/01 A3030 RMK AO2
LIFR 2.2°C / 1.1°C variable 3kt 4800m Mist Vertical Visibility of 0ft. - KRNT 241630Z VRB03KT 3SM BR OVC003 02/01 A3029 RMK AO2 T00220011
LIFR 2.2°C / 1.1°C variable 3kt 4000m Mist Vertical Visibility of 0ft. - KRNT 241617Z VRB03KT 2 1/2SM BR OVC003 02/01 A3029 RMK AO2 T00220011
LIFR 2.2°C / 1.1°C variable 0kt 4800m Mist Vertical Visibility of 0ft. - KRNT 241603Z 00000KT 3SM BR OVC003 02/01 A3028 RMK AO2 T00220011
LIFR 2.2°C / 1.1°C variable 0kt 4000m Mist Vertical Visibility of 0ft. 1025 - KRNT 241553Z 00000KT 2 1/2SM BR OVC003 02/01 A3028 RMK AO2 SLP258 T00220011
LIFR 2.2°C / 1.1°C variable 0kt 4000m Mist Vertical Visibility of 0ft. - KRNT 241512Z 00000KT 2 1/2SM BR OVC003 02/01 A3027 RMK AO2 T00220011
LIFR 2.2°C / 1.1°C 350º 5kt 6400m Mist Vertical Visibility of 0ft. 1025 - KRNT 241453Z AUTO 35005KT 4SM BR OVC004 02/01 A3028 RMK AO2 SLP257 T00220011 56007

IFR

2.2°C / 0.6°C

[Viac]
Vietor 60º 3kt
Viditeľnosť >10km
Počasie -
Oblaky Overcast 600ft
Tlak 1027
Zmeniť -
Nespracované KRNT 250453Z AUTO 06003KT 10SM OVC006 02/01 A3034 RMK AO2 SLP279 T00220006

IFR

2.2°C / 0.6°C

[Viac]
Vietor 60º 4kt
Viditeľnosť >10km
Počasie -
Oblaky Overcast 500ft
Tlak 1027
Zmeniť -
Nespracované KRNT 250353Z AUTO 06004KT 10SM OVC005 02/01 A3033 RMK AO2 SLP275 T00220006

IFR

2.2°C / 0.6°C

[Viac]
Vietor 360º 5kt
Viditeľnosť >10km
Počasie -
Oblaky Overcast 600ft
Tlak 1027
Zmeniť -
Nespracované KRNT 250253Z 36005KT 10SM OVC006 02/01 A3032 RMK AO2 SLP272 T00220006 51005

IFR

3.3°C / 1.1°C

[Viac]
Vietor 40º 3kt
Viditeľnosť >10km
Počasie -
Oblaky Overcast 600ft
Tlak 1027
Zmeniť -
Nespracované KRNT 250153Z 04003KT 10SM OVC006 03/01 A3032 RMK AO2 SLP271 T00330011

IFR

3.3°C / 1.1°C

[Viac]
Vietor 30º 5kt
Viditeľnosť >10km
Počasie -
Oblaky Overcast 700ft
Tlak 1026
Zmeniť -
Nespracované KRNT 250053Z 03005KT 8SM OVC007 03/01 A3031 RMK AO2 SLP269 T00330011

IFR

3.3°C / 1.1°C

[Viac]
Vietor 40º 4kt
Viditeľnosť >10km
Počasie -
Oblaky Overcast 700ft
Tlak
Zmeniť -
Nespracované KRNT 250037Z 04004KT 9SM OVC007 03/01 A3031 RMK AO2 T00330011

IFR

3.3°C / 1.1°C

[Viac]
Vietor variable 5kt
Viditeľnosť >10km
Počasie -
Oblaky Overcast 800ft
Tlak
Zmeniť -
Nespracované KRNT 250023Z VRB05KT 10SM OVC008 03/01 A3031 RMK AO2 T00330011

IFR

3.9°C / 1.7°C

[Viac]
Vietor variable 5kt
Viditeľnosť >10km
Počasie -
Oblaky Overcast 700ft
Tlak 1026
Zmeniť -
Nespracované KRNT 242353Z VRB05KT 9SM OVC007 04/02 A3031 RMK AO2 SLP267 T00390017 10044 20022 55001

IFR

4.4°C / 2.2°C

[Viac]
Vietor 30º 5kt
Viditeľnosť >10km
Počasie -
Oblaky Overcast 700ft
Tlak 1026
Zmeniť -
Nespracované KRNT 242253Z 03005KT 8SM OVC007 04/02 A3029 RMK AO2 SLP263 T00440022

IFR

3.9°C / 2.2°C

[Viac]
Vietor variable 3kt
Viditeľnosť >10km
Počasie -
Oblaky Overcast 600ft
Tlak 1026
Zmeniť -
Nespracované KRNT 242153Z VRB03KT 7SM OVC006 04/02 A3030 RMK AO2 SLP264 T00390022

IFR

3.9°C / 1.7°C

[Viac]
Vietor 350º 4kt
Viditeľnosť 9700m
Počasie Mist
Oblaky Vertical Visibility of 0ft.
Tlak 1026
Zmeniť -
Nespracované KRNT 242053Z 35004KT 6SM BR OVC005 04/02 A3031 RMK AO2 SLP268 T00390017 58003 $

IFR

3.3°C / 1.7°C

[Viac]
Vietor variable 0kt
Viditeľnosť 6400m
Počasie Mist
Oblaky Vertical Visibility of 0ft.
Tlak
Zmeniť -
Nespracované KRNT 242000Z 00000KT 4SM BR OVC005 03/02 A3032 RMK AO2 T00330017 $

LIFR

3.3°C / 2.2°C

[Viac]
Vietor variable 0kt
Viditeľnosť 6400m
Počasie Mist
Oblaky Vertical Visibility of 0ft.
Tlak
Zmeniť -
Nespracované KRNT 241944Z 00000KT 4SM BR OVC004 03/02 A3032 RMK AO2 T00330022 $

IFR

2.8°C / 1.1°C

[Viac]
Vietor variable 0kt
Viditeľnosť 9700m
Počasie Mist
Oblaky Vertical Visibility of 0ft.
Tlak
Zmeniť -
Nespracované KRNT 241900Z 00000KT 6SM BR OVC005 03/01 A3033 RMK AO2 T00280011 $

LIFR

2.2°C / 1.1°C

[Viac]
Vietor variable 0kt
Viditeľnosť 9700m
Počasie Mist
Oblaky Vertical Visibility of 0ft.
Tlak 1027
Zmeniť -
Nespracované KRNT 241753Z 00000KT 6SM BR OVC003 02/01 A3032 RMK AO2 SLP271 T00220011 10028 20017 52013

LIFR

2.2°C / 1.1°C

[Viac]
Vietor variable 3kt
Viditeľnosť 4800m
Počasie Mist
Oblaky Vertical Visibility of 0ft.
Tlak
Zmeniť -
Nespracované KRNT 241703Z VRB03KT 3SM BR OVC003 02/01 A3030 RMK AO2 T00220011

LIFR

2.2°C / 1.1°C

[Viac]
Vietor 50º 3kt
Viditeľnosť 4000m
Počasie Mist
Oblaky Vertical Visibility of 0ft.
Tlak 1026
Zmeniť -
Nespracované KRNT 241653Z 05003KT 2 1/2SM BR OVC003 02/01 A3030 RMK AO2 SLP265 T00220011

LIFR

2°C / 1°C

[Viac]
Vietor variable 0kt
Viditeľnosť 4000m
Počasie Mist
Oblaky Vertical Visibility of 0ft.
Tlak
Zmeniť -
Nespracované KRNT 241651Z 00000KT 2 1/2SM BR OVC003 02/01 A3030 RMK AO2

LIFR

2.2°C / 1.1°C

[Viac]
Vietor variable 3kt
Viditeľnosť 4800m
Počasie Mist
Oblaky Vertical Visibility of 0ft.
Tlak
Zmeniť -
Nespracované KRNT 241630Z VRB03KT 3SM BR OVC003 02/01 A3029 RMK AO2 T00220011

LIFR

2.2°C / 1.1°C

[Viac]
Vietor variable 3kt
Viditeľnosť 4000m
Počasie Mist
Oblaky Vertical Visibility of 0ft.
Tlak
Zmeniť -
Nespracované KRNT 241617Z VRB03KT 2 1/2SM BR OVC003 02/01 A3029 RMK AO2 T00220011

LIFR

2.2°C / 1.1°C

[Viac]
Vietor variable 0kt
Viditeľnosť 4800m
Počasie Mist
Oblaky Vertical Visibility of 0ft.
Tlak
Zmeniť -
Nespracované KRNT 241603Z 00000KT 3SM BR OVC003 02/01 A3028 RMK AO2 T00220011

LIFR

2.2°C / 1.1°C

[Viac]
Vietor variable 0kt
Viditeľnosť 4000m
Počasie Mist
Oblaky Vertical Visibility of 0ft.
Tlak 1025
Zmeniť -
Nespracované KRNT 241553Z 00000KT 2 1/2SM BR OVC003 02/01 A3028 RMK AO2 SLP258 T00220011

LIFR

2.2°C / 1.1°C

[Viac]
Vietor variable 0kt
Viditeľnosť 4000m
Počasie Mist
Oblaky Vertical Visibility of 0ft.
Tlak
Zmeniť -
Nespracované KRNT 241512Z 00000KT 2 1/2SM BR OVC003 02/01 A3027 RMK AO2 T00220011

LIFR

2.2°C / 1.1°C

[Viac]
Vietor 350º 5kt
Viditeľnosť 6400m
Počasie Mist
Oblaky Vertical Visibility of 0ft.
Tlak 1025
Zmeniť -
Nespracované KRNT 241453Z AUTO 35005KT 4SM BR OVC004 02/01 A3028 RMK AO2 SLP257 T00220011 56007

Radar a krátkodobá predpoveď zrážok pre Renton

Mrholenie
Slabý
Mierne
Ťažké
Veľmi ťažké
Krúpy

Značka polohy je umiestnená na Renton. Táto animácia ukazuje zrážky pozorované radarom za poslednú hodinu a tiež 1h predpoveď. Mrholenie alebo slabé sneženie môže byť pre radar neviditeľné. Intenzita zrážok je farebne označená od svetlomodrej po oranžovú.

Aktuálne satelitné snímky pre lokalitu Renton, Spojené štáty americké

Značka polohy je umiestnená naRenton. [Viac]

Satelitné snímky zhotovované v reálnom čase využívajú viditeľné svetlo počas dňa a infračervené žiarenie počas noci. Vzhľadom na to, že infračervené žiarenie zisťuje teplotné rozdiely, snímka v noci nie je tmavá. Nízke oblaky a hmlu je, žiaľ, ťažké odlíšiť od prízemných teplôt, preto môžu byť počas noci takmer neviditeľné. Meteosat satelitné snímky pre Európu sú aktualizované v reálnom čase každých 5 minút. Snímky z GOES-16/GOES-17 (Severná a Južná Amerika) a Himawari (Ázia) sú aktualizované každých 10 minút.